createdAt,value
2018-03-08T00:01:26.555Z,48.7
2018-03-08T00:11:26.107Z,50.9
2018-03-08T00:21:25.910Z,48.1
2018-03-08T00:31:26.563Z,52.3
2018-03-08T00:41:26.176Z,53.2
2018-03-08T00:51:26.169Z,55.7
2018-03-08T01:01:25.823Z,49.5
2018-03-08T01:11:27.279Z,50.8
2018-03-08T01:21:28.396Z,50.7
2018-03-08T01:31:26.484Z,49.2
2018-03-08T01:41:26.472Z,48.9
2018-03-08T01:51:27.565Z,47.1
2018-03-08T02:01:26.134Z,45.7
2018-03-08T02:11:25.822Z,42.6
2018-03-08T02:21:26.512Z,43.1
2018-03-08T02:31:27.066Z,41.4
2018-03-08T02:41:25.952Z,42.7
2018-03-08T02:51:28.266Z,44.1
2018-03-08T03:01:26.174Z,44.5
2018-03-08T03:11:28.449Z,49.2
2018-03-08T03:21:26.519Z,51.5
2018-03-08T03:31:27.262Z,48.2
2018-03-08T03:41:26.953Z,48.7
2018-03-08T03:51:25.748Z,49.4
2018-03-08T04:01:27.907Z,47.5
2018-03-08T04:11:27.070Z,43.7
2018-03-08T04:21:26.323Z,45.6
2018-03-08T04:31:25.910Z,48.2
2018-03-08T04:41:28.814Z,54.8
2018-03-08T04:51:26.268Z,53.0
2018-03-08T05:01:25.800Z,47.1
2018-03-08T05:11:26.711Z,50.4
2018-03-08T05:21:26.759Z,44.3
2018-03-08T05:31:26.469Z,45.4
2018-03-08T05:41:26.346Z,48.8
2018-03-08T05:51:26.082Z,45.4
2018-03-08T06:01:26.606Z,47.0
2018-03-08T06:11:28.991Z,48.3
2018-03-08T06:21:25.999Z,46.5
2018-03-08T06:31:26.812Z,46.5
2018-03-08T06:41:27.192Z,45.0
2018-03-08T06:51:26.187Z,44.7
2018-03-08T07:01:25.780Z,39.4
2018-03-08T07:11:26.366Z,43.9
2018-03-08T07:21:26.927Z,44.6
2018-03-08T07:31:26.520Z,39.7
2018-03-08T07:41:26.004Z,34.8
2018-03-08T07:51:25.739Z,34.7
2018-03-08T08:01:27.745Z,36.6
2018-03-08T08:11:27.319Z,34.0
2018-03-08T08:21:26.030Z,27.5
2018-03-08T08:31:26.928Z,21.8
2018-03-08T08:41:26.790Z,16.7
2018-03-08T08:51:26.911Z,18.5
2018-03-08T09:01:26.822Z,17.8
2018-03-08T09:11:27.592Z,17.5
2018-03-08T09:21:26.643Z,12.4
2018-03-08T09:31:28.493Z,10.4
2018-03-08T09:41:26.924Z,12.6
2018-03-08T09:51:26.520Z,13.6
2018-03-08T10:01:26.073Z,8.0
2018-03-08T10:11:26.690Z,8.3
2018-03-08T10:21:44.452Z,8.3
2018-03-08T10:31:27.775Z,6.7
2018-03-08T10:51:26.403Z,7.7
2018-03-08T11:01:26.049Z,8.1
2018-03-08T11:11:26.922Z,6.5
2018-03-08T11:21:26.844Z,7.3
2018-03-08T11:31:26.546Z,5.6
2018-03-08T11:41:26.981Z,5.7
2018-03-08T11:51:26.738Z,5.9
2018-03-08T12:01:27.698Z,6.8
2018-03-08T12:11:26.680Z,6.3
2018-03-08T12:21:26.400Z,5.4
2018-03-08T12:31:27.151Z,5.9
2018-03-08T12:41:27.211Z,6.3
2018-03-08T12:51:26.265Z,5.0
2018-03-08T13:01:25.840Z,4.6
2018-03-08T13:11:27.074Z,5.1
2018-03-08T13:21:26.084Z,4.2
2018-03-08T13:31:26.595Z,6.2
2018-03-08T13:41:30.702Z,5.8
2018-03-08T13:51:26.385Z,4.6
2018-03-08T14:01:26.225Z,5.7
2018-03-08T14:11:25.727Z,5.3
2018-03-08T14:21:28.429Z,6.6
2018-03-08T14:31:27.124Z,6.3
2018-03-08T14:41:26.271Z,8.3
2018-03-08T14:51:26.491Z,7.4
2018-03-08T15:01:26.129Z,7.0
2018-03-08T15:11:26.276Z,8.6
2018-03-08T15:21:28.411Z,9.5
2018-03-08T15:31:25.962Z,9.8
2018-03-08T15:41:27.034Z,9.1
2018-03-08T15:51:26.726Z,8.3
2018-03-08T16:01:26.374Z,10.0
2018-03-08T16:11:26.217Z,11.1
2018-03-08T16:21:26.316Z,11.9
2018-03-08T16:31:26.799Z,12.2
2018-03-08T16:41:26.306Z,12.3
2018-03-08T16:51:26.634Z,12.1
2018-03-08T17:01:26.286Z,13.5
2018-03-08T17:11:26.223Z,13.9
2018-03-08T17:21:26.019Z,12.4
2018-03-08T17:31:27.458Z,14.3
2018-03-08T17:41:26.060Z,15.0
2018-03-08T17:51:26.725Z,15.5
2018-03-08T18:01:27.465Z,17.6
2018-03-08T18:11:26.705Z,18.5
2018-03-08T18:21:26.811Z,21.9
2018-03-08T18:31:26.927Z,20.4
2018-03-08T18:41:27.711Z,24.0
2018-03-08T18:51:27.483Z,25.7
2018-03-08T19:01:26.734Z,26.3
2018-03-08T19:11:31.838Z,25.7
2018-03-08T19:21:27.206Z,26.0
2018-03-08T19:31:25.777Z,28.5
2018-03-08T19:41:26.368Z,29.3
2018-03-08T19:51:27.013Z,27.9
2018-03-08T20:01:26.822Z,29.3
2018-03-08T20:11:25.924Z,30.3
2018-03-08T20:21:27.089Z,27.1
2018-03-08T20:31:26.112Z,30.5
2018-03-08T20:41:25.740Z,31.7
2018-03-08T20:51:28.905Z,33.0
2018-03-08T21:01:27.064Z,31.6
2018-03-08T21:11:26.780Z,31.8
2018-03-08T21:21:26.971Z,33.8
2018-03-08T21:31:26.525Z,33.0
2018-03-08T21:41:26.516Z,33.1
2018-03-08T21:51:28.520Z,40.1
2018-03-08T22:01:27.191Z,41.1
2018-03-08T22:11:26.089Z,43.4
2018-03-08T22:21:27.189Z,49.6
2018-03-08T22:31:26.000Z,54.5
2018-03-08T22:41:27.345Z,53.3
2018-03-08T22:51:26.462Z,58.7
2018-03-08T23:01:26.865Z,61.6
2018-03-08T23:11:28.316Z,65.6
2018-03-08T23:21:26.218Z,70.7
2018-03-08T23:31:25.769Z,70.2
2018-03-08T23:41:26.844Z,71.4
2018-03-08T23:51:26.786Z,72.5
